createdAt,value
2023-03-16T00:01:08.289Z,2.72
2023-03-16T00:03:36.512Z,3.05
2023-03-16T00:06:03.771Z,2.45
2023-03-16T00:08:30.614Z,2.65
2023-03-16T00:10:57.396Z,3.13
2023-03-16T00:13:25.218Z,2.33
2023-03-16T00:16:04.363Z,2.60
2023-03-16T00:18:39.154Z,2.65
2023-03-16T00:21:06.751Z,2.42
2023-03-16T00:23:37.779Z,2.30
2023-03-16T00:26:07.510Z,2.47
2023-03-16T00:28:35.504Z,2.42
2023-03-16T00:31:07.706Z,2.50
2023-03-16T00:33:37.325Z,3.03
2023-03-16T00:36:09.206Z,2.58
2023-03-16T00:38:38.696Z,2.20
2023-03-16T00:41:07.659Z,2.60
2023-03-16T00:43:40.735Z,2.88
2023-03-16T00:46:11.685Z,2.60
2023-03-16T00:48:42.336Z,2.60
2023-03-16T00:51:15.484Z,3.10
2023-03-16T00:53:43.890Z,2.70
2023-03-16T00:56:11.513Z,3.22
2023-03-16T00:58:40.168Z,2.38
2023-03-16T01:01:10.744Z,2.72
2023-03-16T01:03:37.877Z,2.70
2023-03-16T01:06:13.506Z,2.92
2023-03-16T01:08:42.602Z,3.25
2023-03-16T01:11:17.619Z,2.67
2023-03-16T01:13:46.990Z,2.20
2023-03-16T01:16:15.015Z,3.22
2023-03-16T01:18:41.953Z,2.47
2023-03-16T01:21:13.699Z,2.58
2023-03-16T01:23:40.763Z,2.93
2023-03-16T01:26:08.353Z,2.72
2023-03-16T01:28:35.521Z,2.95
2023-03-16T01:31:11.575Z,3.20
2023-03-16T01:33:38.901Z,3.05
2023-03-16T01:36:15.175Z,3.22
2023-03-16T01:38:51.366Z,2.65
2023-03-16T01:41:18.522Z,2.90
2023-03-16T01:47:45.322Z,3.67
2023-03-16T01:50:15.022Z,2.92
2023-03-16T01:52:42.453Z,2.65
2023-03-16T01:55:13.679Z,2.80
2023-03-16T01:57:46.978Z,3.20
2023-03-16T02:00:23.655Z,3.22
2023-03-16T02:03:11.543Z,2.88
2023-03-16T02:05:48.886Z,2.67
2023-03-16T02:08:17.759Z,2.80
2023-03-16T02:10:45.233Z,2.75
2023-03-16T02:13:12.785Z,2.97
2023-03-16T02:15:39.816Z,2.92
2023-03-16T02:18:08.594Z,2.90
2023-03-16T02:20:50.694Z,3.47
2023-03-16T02:23:20.895Z,2.90
2023-03-16T02:26:05.348Z,2.60
2023-03-16T02:28:39.369Z,3.10
2023-03-16T02:33:34.761Z,2.35
2023-03-16T02:36:01.747Z,2.63
2023-03-16T02:38:28.872Z,2.55
2023-03-16T02:41:19.621Z,3.00
2023-03-16T02:44:02.091Z,3.35
2023-03-16T02:46:36.158Z,2.83
2023-03-16T02:49:06.941Z,2.78
2023-03-16T02:51:33.738Z,3.10
2023-03-16T02:54:00.834Z,2.90
2023-03-16T02:56:31.079Z,3.05
2023-03-16T02:58:57.977Z,3.10
2023-03-16T03:01:25.709Z,3.50
2023-03-16T03:03:52.435Z,3.03
2023-03-16T03:06:19.310Z,3.22
2023-03-16T03:08:46.035Z,3.30
2023-03-16T03:11:13.291Z,3.05
2023-03-16T03:13:40.122Z,2.95
2023-03-16T03:16:13.289Z,3.65
2023-03-16T03:18:40.111Z,2.90
2023-03-16T03:21:07.508Z,3.67
2023-03-16T03:23:37.241Z,2.75
2023-03-16T03:26:04.262Z,3.30
2023-03-16T03:28:34.190Z,3.20
2023-03-16T03:31:04.005Z,3.30
2023-03-16T03:33:33.549Z,2.83
2023-03-16T03:36:02.233Z,3.67
2023-03-16T03:38:34.347Z,3.25
2023-03-16T03:41:01.472Z,3.03
2023-03-16T03:43:32.308Z,3.50
2023-03-16T03:46:03.835Z,3.15
2023-03-16T03:48:33.774Z,3.35
2023-03-16T03:51:01.463Z,3.17
2023-03-16T03:53:42.889Z,3.20
2023-03-16T03:56:18.922Z,3.38
2023-03-16T03:58:46.280Z,3.22
2023-03-16T04:01:19.361Z,3.47
2023-03-16T04:03:46.184Z,3.67
2023-03-16T04:06:15.126Z,3.53
2023-03-16T04:08:42.178Z,3.70
2023-03-16T04:11:11.920Z,3.60
2023-03-16T04:13:39.893Z,3.47
2023-03-16T04:16:07.130Z,3.13
2023-03-16T04:18:40.994Z,3.17
2023-03-16T04:21:16.748Z,3.20
2023-03-16T04:23:45.932Z,3.67
2023-03-16T04:26:13.199Z,3.42
2023-03-16T04:28:43.295Z,3.88
2023-03-16T04:31:12.914Z,4.22
2023-03-16T04:33:43.247Z,3.42
2023-03-16T04:36:10.321Z,3.80
2023-03-16T04:38:38.404Z,3.60
2023-03-16T04:41:06.467Z,3.78
2023-03-16T04:43:37.520Z,3.05
2023-03-16T04:46:11.163Z,3.78
2023-03-16T04:48:38.347Z,4.07
2023-03-16T04:51:06.296Z,3.95
2023-03-16T04:53:37.234Z,3.63
2023-03-16T04:56:19.348Z,4.25
2023-03-16T04:58:51.402Z,4.00
2023-03-16T05:01:20.327Z,3.70
2023-03-16T05:03:49.807Z,3.92
2023-03-16T05:06:17.228Z,3.50
2023-03-16T05:08:44.030Z,3.72
2023-03-16T05:11:10.868Z,3.90
2023-03-16T05:13:47.492Z,3.78
2023-03-16T05:16:15.129Z,4.40
2023-03-16T05:18:42.153Z,3.78
2023-03-16T05:21:08.946Z,3.22
2023-03-16T05:23:52.152Z,4.15
2023-03-16T05:26:19.643Z,2.85
2023-03-16T05:28:46.897Z,3.45
2023-03-16T05:31:17.016Z,3.17
2023-03-16T05:36:19.799Z,3.30
2023-03-16T05:38:50.126Z,3.33
2023-03-16T05:41:31.702Z,3.30
2023-03-16T05:44:04.814Z,3.50
2023-03-16T05:46:49.381Z,3.20
2023-03-16T05:49:16.367Z,3.75
2023-03-16T05:51:43.371Z,3.72
2023-03-16T05:54:13.015Z,2.88
2023-03-16T05:56:45.132Z,3.53
2023-03-16T05:59:12.180Z,3.70
2023-03-16T06:01:40.261Z,3.47
2023-03-16T06:04:07.869Z,4.78
2023-03-16T06:06:39.160Z,3.08
2023-03-16T06:09:12.159Z,4.15
2023-03-16T06:11:39.056Z,4.00
2023-03-16T06:14:06.172Z,3.10
2023-03-16T06:16:33.174Z,3.20
2023-03-16T06:19:01.061Z,3.20
2023-03-16T06:21:29.496Z,3.28
2023-03-16T06:24:04.321Z,3.67
2023-03-16T06:26:31.562Z,3.65
2023-03-16T06:28:58.777Z,3.38
2023-03-16T06:31:25.977Z,3.30
2023-03-16T06:33:52.782Z,3.20
2023-03-16T06:36:19.733Z,3.47
2023-03-16T06:38:51.769Z,4.13
2023-03-16T06:41:42.606Z,3.28
2023-03-16T06:44:10.423Z,3.13
2023-03-16T06:46:42.969Z,3.83
2023-03-16T06:49:09.904Z,3.35
2023-03-16T06:51:36.857Z,2.50
2023-03-16T06:54:04.294Z,3.30
2023-03-16T06:56:32.284Z,3.53
2023-03-16T06:58:59.276Z,3.13
2023-03-16T07:01:26.514Z,3.13
2023-03-16T07:03:54.496Z,2.60
2023-03-16T07:06:26.278Z,3.20
2023-03-16T07:08:54.110Z,3.05
2023-03-16T07:11:23.526Z,3.15
2023-03-16T07:13:52.014Z,3.55
2023-03-16T07:16:21.917Z,3.25
2023-03-16T07:18:48.786Z,3.00
2023-03-16T07:21:19.356Z,3.22
2023-03-16T07:23:47.102Z,2.95
2023-03-16T07:26:18.666Z,2.95
2023-03-16T07:28:52.932Z,3.20
2023-03-16T07:31:19.974Z,3.70
2023-03-16T07:33:50.968Z,3.05
2023-03-16T07:36:26.876Z,3.15
2023-03-16T07:38:57.723Z,3.30
2023-03-16T07:41:25.439Z,4.00
2023-03-16T07:43:53.453Z,3.35
2023-03-16T07:46:24.428Z,3.30
2023-03-16T07:48:51.402Z,3.17
2023-03-16T07:51:18.164Z,3.58
2023-03-16T07:53:48.235Z,3.67
2023-03-16T07:56:19.604Z,3.15
2023-03-16T07:58:51.396Z,3.40
2023-03-16T08:01:18.180Z,3.67
2023-03-16T08:03:45.324Z,3.95
2023-03-16T08:06:12.218Z,3.00
2023-03-16T08:08:39.251Z,3.20
2023-03-16T08:11:06.981Z,3.70
2023-03-16T08:13:44.068Z,2.95
2023-03-16T08:16:13.447Z,3.25
2023-03-16T08:18:43.590Z,3.67
2023-03-16T08:21:10.601Z,3.60
2023-03-16T08:23:37.484Z,3.72
2023-03-16T08:26:09.164Z,3.63
2023-03-16T08:28:37.691Z,3.85
2023-03-16T08:31:09.326Z,3.75
2023-03-16T08:33:45.102Z,3.55
2023-03-16T08:36:15.280Z,4.13
2023-03-16T08:38:50.924Z,3.75
2023-03-16T08:44:00.602Z,3.80
2023-03-16T08:46:27.728Z,4.15
2023-03-16T08:48:58.267Z,4.07
2023-03-16T08:51:26.701Z,4.10
2023-03-16T08:53:54.101Z,4.40
2023-03-16T08:56:21.430Z,3.80
2023-03-16T08:58:50.459Z,3.22
2023-03-16T09:01:19.168Z,4.78
2023-03-16T09:03:46.528Z,4.00
2023-03-16T09:06:16.121Z,3.92
2023-03-16T09:08:45.364Z,4.05
2023-03-16T09:11:14.854Z,4.70
2023-03-16T09:13:42.773Z,4.70
2023-03-16T09:16:12.163Z,4.20
2023-03-16T09:18:39.889Z,4.28
2023-03-16T09:21:08.561Z,4.05
2023-03-16T09:23:37.776Z,3.85
2023-03-16T09:26:07.516Z,4.47
2023-03-16T09:28:36.069Z,4.65
2023-03-16T09:31:03.418Z,5.00
2023-03-16T09:33:32.099Z,4.40
2023-03-16T09:36:00.199Z,4.82
2023-03-16T09:38:27.612Z,4.70
2023-03-16T09:41:26.469Z,4.40
2023-03-16T09:44:43.040Z,4.43
2023-03-16T09:47:12.173Z,4.05
2023-03-16T09:49:47.903Z,4.85
2023-03-16T09:52:25.100Z,4.20
2023-03-16T09:55:26.993Z,4.05
2023-03-16T09:57:54.547Z,4.18
2023-03-16T10:00:25.302Z,4.53
2023-03-16T10:03:10.676Z,5.28
2023-03-16T10:05:39.436Z,4.63
2023-03-16T10:08:43.753Z,4.50
2023-03-16T10:11:26.035Z,4.38
2023-03-16T10:14:11.532Z,4.97
2023-03-16T10:16:45.155Z,5.18
2023-03-16T10:19:21.774Z,4.60
2023-03-16T10:21:54.333Z,4.28
2023-03-16T10:26:55.540Z,3.90
2023-03-16T10:29:22.447Z,4.07
2023-03-16T10:31:49.242Z,4.40
2023-03-16T10:34:16.125Z,4.28
2023-03-16T10:36:45.089Z,4.35
2023-03-16T10:39:18.002Z,3.83
2023-03-16T10:41:54.033Z,4.88
2023-03-16T10:44:26.717Z,4.30
2023-03-16T10:49:44.220Z,4.18
2023-03-16T10:52:13.921Z,3.58
2023-03-16T10:54:47.959Z,3.67
2023-03-16T10:57:31.265Z,4.05
2023-03-16T11:00:13.051Z,3.80
2023-03-16T11:02:40.661Z,3.47
2023-03-16T11:05:19.511Z,3.40
2023-03-16T11:07:59.665Z,3.97
2023-03-16T11:10:29.576Z,3.78
2023-03-16T11:13:02.685Z,3.55
2023-03-16T11:15:37.423Z,3.50
2023-03-16T11:18:04.600Z,3.53
2023-03-16T11:20:34.301Z,3.42
2023-03-16T11:23:02.538Z,3.90
2023-03-16T11:25:43.134Z,4.25
2023-03-16T11:28:15.472Z,3.40
2023-03-16T11:31:10.742Z,3.50
2023-03-16T11:33:38.017Z,2.95
2023-03-16T11:36:04.776Z,4.03
2023-03-16T11:38:44.034Z,4.20
2023-03-16T11:41:15.391Z,4.05
2023-03-16T11:44:07.091Z,3.63
2023-03-16T11:47:09.026Z,3.92
2023-03-16T11:49:52.549Z,3.72
2023-03-16T11:52:37.752Z,3.90
2023-03-16T11:55:19.563Z,3.45
2023-03-16T11:58:07.157Z,3.70
2023-03-16T12:00:56.332Z,3.45
2023-03-16T12:03:34.746Z,4.05
2023-03-16T12:06:22.180Z,3.78
2023-03-16T12:09:18.692Z,3.47
2023-03-16T12:11:51.436Z,3.42
2023-03-16T12:14:38.910Z,4.25
2023-03-16T12:17:19.541Z,3.17
2023-03-16T12:19:47.071Z,3.83
2023-03-16T12:22:37.361Z,3.70
2023-03-16T12:25:22.216Z,3.88
2023-03-16T12:27:53.057Z,4.40
2023-03-16T12:30:44.884Z,3.60
2023-03-16T12:33:28.366Z,4.13
2023-03-16T12:36:19.767Z,3.72
2023-03-16T12:39:06.201Z,4.18
2023-03-16T12:41:56.685Z,3.67
2023-03-16T12:44:32.510Z,3.70
2023-03-16T12:47:32.724Z,4.05
2023-03-16T12:50:11.358Z,4.10
2023-03-16T12:52:52.302Z,3.65
2023-03-16T12:55:36.775Z,3.65
2023-03-16T12:58:07.464Z,3.53
2023-03-16T13:00:40.665Z,3.95
2023-03-16T13:03:15.563Z,3.50
2023-03-16T13:06:00.825Z,3.15
2023-03-16T13:08:28.910Z,3.00
2023-03-16T13:11:03.281Z,3.78
2023-03-16T13:13:30.320Z,3.08
2023-03-16T13:16:22.305Z,3.63
2023-03-16T13:18:49.538Z,3.08
2023-03-16T13:21:18.066Z,2.65
2023-03-16T13:24:00.051Z,3.17
2023-03-16T13:26:41.223Z,2.70
2023-03-16T13:29:19.564Z,3.03
2023-03-16T13:31:47.123Z,3.35
2023-03-16T13:34:20.166Z,3.15
2023-03-16T13:36:47.373Z,2.97
2023-03-16T13:39:20.187Z,3.03
2023-03-16T13:42:01.757Z,3.03
2023-03-16T13:44:29.496Z,2.80
2023-03-16T13:46:56.953Z,3.03
2023-03-16T13:49:23.850Z,3.45
2023-03-16T13:51:50.847Z,2.67
2023-03-16T13:54:30.913Z,3.42
2023-03-16T13:57:00.329Z,2.92
2023-03-16T13:59:27.512Z,2.72
2023-03-16T14:02:00.082Z,3.08
2023-03-16T14:07:03.591Z,2.70
2023-03-16T14:09:34.472Z,2.60
2023-03-16T14:12:02.293Z,2.45
2023-03-16T14:14:31.912Z,2.50
2023-03-16T14:17:13.501Z,2.53
2023-03-16T14:19:46.052Z,2.47
2023-03-16T14:22:18.787Z,2.20
2023-03-16T14:24:53.093Z,2.42
2023-03-16T14:27:32.687Z,2.40
2023-03-16T14:30:02.134Z,2.35
2023-03-16T14:32:32.437Z,2.75
2023-03-16T14:35:21.235Z,2.65
2023-03-16T14:37:51.945Z,2.25
2023-03-16T14:40:26.621Z,2.70
2023-03-16T14:42:55.928Z,2.50
2023-03-16T14:45:23.652Z,2.60
2023-03-16T14:47:52.393Z,2.80
2023-03-16T14:50:25.622Z,3.15
2023-03-16T14:52:55.943Z,2.28
2023-03-16T14:55:23.864Z,2.13
2023-03-16T14:57:53.871Z,2.25
2023-03-16T15:00:22.804Z,2.58
2023-03-16T15:03:06.264Z,2.58
2023-03-16T15:05:52.057Z,2.70
2023-03-16T15:08:28.459Z,2.50
2023-03-16T15:10:57.578Z,2.60
2023-03-16T15:13:39.598Z,3.28
2023-03-16T15:16:07.716Z,2.83
2023-03-16T15:18:34.872Z,2.47
2023-03-16T15:21:02.783Z,2.85
2023-03-16T15:23:30.779Z,2.50
2023-03-16T15:26:02.694Z,2.67
2023-03-16T15:28:29.665Z,2.35
2023-03-16T15:30:59.153Z,2.42
2023-03-16T15:33:27.186Z,2.50
2023-03-16T15:35:56.286Z,2.80
2023-03-16T15:38:32.338Z,2.67
2023-03-16T15:40:59.637Z,2.55
2023-03-16T15:43:28.935Z,2.30
2023-03-16T15:45:57.415Z,2.60
2023-03-16T15:48:24.436Z,2.58
2023-03-16T15:51:02.257Z,2.63
2023-03-16T15:53:35.719Z,2.60
2023-03-16T15:56:14.686Z,1.98
2023-03-16T15:58:45.738Z,2.30
2023-03-16T16:01:44.943Z,2.05
2023-03-16T16:04:19.472Z,2.67
2023-03-16T16:06:47.452Z,2.00
2023-03-16T16:09:14.486Z,2.15
2023-03-16T16:11:41.647Z,2.58
2023-03-16T16:14:23.432Z,1.80
2023-03-16T16:16:50.343Z,2.53
2023-03-16T16:19:18.734Z,2.80
2023-03-16T16:21:46.987Z,2.40
2023-03-16T16:24:13.657Z,2.33
2023-03-16T16:26:52.153Z,2.50
2023-03-16T16:29:23.301Z,2.55
2023-03-16T16:31:52.228Z,2.35
2023-03-16T16:34:21.434Z,2.53
2023-03-16T16:36:49.035Z,2.20
2023-03-16T16:39:15.999Z,2.60
2023-03-16T16:41:43.928Z,2.40
2023-03-16T16:44:33.577Z,2.22
2023-03-16T16:47:02.495Z,2.22
2023-03-16T16:49:30.868Z,2.53
2023-03-16T16:51:58.552Z,2.25
2023-03-16T16:54:28.774Z,2.25
2023-03-16T16:56:57.472Z,2.45
2023-03-16T16:59:27.206Z,2.22
2023-03-16T17:01:54.490Z,2.50
2023-03-16T17:04:24.731Z,2.05
2023-03-16T17:06:58.216Z,2.15
2023-03-16T17:09:27.207Z,2.60
2023-03-16T17:11:58.431Z,2.10
2023-03-16T17:14:27.584Z,2.03
2023-03-16T17:16:55.099Z,2.42
2023-03-16T17:19:28.038Z,2.47
2023-03-16T17:21:57.740Z,2.20
2023-03-16T17:24:25.131Z,2.30
2023-03-16T17:27:00.321Z,2.10
2023-03-16T17:29:34.107Z,2.17
2023-03-16T17:32:03.777Z,2.30
2023-03-16T17:34:32.803Z,2.45
2023-03-16T17:36:59.580Z,2.38
2023-03-16T17:39:31.796Z,2.33
2023-03-16T17:42:05.195Z,2.60
2023-03-16T17:44:35.385Z,2.50
2023-03-16T17:47:02.154Z,2.67
2023-03-16T17:49:30.608Z,2.65
2023-03-16T17:51:57.480Z,2.75
2023-03-16T17:54:24.267Z,2.40
2023-03-16T17:56:52.312Z,2.20
2023-03-16T17:59:21.061Z,2.45
2023-03-16T18:01:48.467Z,2.55
2023-03-16T18:04:26.441Z,2.17
2023-03-16T18:06:54.144Z,2.60
2023-03-16T18:09:21.273Z,2.22
2023-03-16T18:11:50.924Z,2.55
2023-03-16T18:14:39.533Z,2.42
2023-03-16T18:17:30.904Z,2.60
2023-03-16T18:19:59.056Z,2.90
2023-03-16T18:22:25.937Z,2.30
2023-03-16T18:24:53.908Z,2.67
2023-03-16T18:27:21.262Z,2.90
2023-03-16T18:29:48.744Z,2.50
2023-03-16T18:32:23.637Z,2.72
2023-03-16T18:34:52.435Z,2.42
2023-03-16T18:37:24.857Z,2.42
2023-03-16T18:39:52.749Z,2.95
2023-03-16T18:42:21.597Z,2.58
2023-03-16T18:44:48.943Z,2.63
2023-03-16T18:47:21.948Z,2.63
2023-03-16T18:49:51.454Z,2.55
2023-03-16T18:52:24.353Z,2.53
2023-03-16T18:54:51.860Z,2.30
2023-03-16T18:57:29.237Z,2.63
2023-03-16T18:59:56.171Z,2.25
2023-03-16T19:02:37.366Z,2.30
2023-03-16T19:05:07.570Z,2.25
2023-03-16T19:07:40.993Z,2.40
2023-03-16T19:10:23.173Z,2.47
2023-03-16T19:12:50.667Z,2.30
2023-03-16T19:15:26.577Z,2.40
2023-03-16T19:17:53.993Z,2.38
2023-03-16T19:20:23.540Z,2.50
2023-03-16T19:22:51.896Z,2.40
2023-03-16T19:25:23.942Z,2.85
2023-03-16T19:27:51.192Z,2.47
2023-03-16T19:30:27.939Z,2.72
2023-03-16T19:32:55.988Z,2.63
2023-03-16T19:35:36.858Z,2.40
2023-03-16T19:38:11.883Z,2.85
2023-03-16T19:40:38.663Z,2.53
2023-03-16T19:43:05.914Z,2.97
2023-03-16T19:45:33.958Z,2.70
2023-03-16T19:48:01.492Z,2.80
2023-03-16T19:50:28.947Z,2.67
2023-03-16T19:52:59.077Z,2.55
2023-03-16T19:55:31.842Z,2.80
2023-03-16T19:58:07.333Z,3.05
2023-03-16T20:00:34.688Z,2.60
2023-03-16T20:03:03.208Z,2.47
2023-03-16T20:05:30.976Z,2.60
2023-03-16T20:08:00.935Z,3.00
2023-03-16T20:10:29.703Z,2.60
2023-03-16T20:13:01.566Z,3.03
2023-03-16T20:15:32.291Z,2.85
2023-03-16T20:17:59.887Z,3.47
2023-03-16T20:20:29.093Z,2.60
2023-03-16T20:23:12.276Z,2.58
2023-03-16T20:25:39.037Z,2.80
2023-03-16T20:28:14.240Z,2.70
2023-03-16T20:30:41.331Z,2.85
2023-03-16T20:33:16.787Z,2.92
2023-03-16T20:35:43.617Z,3.30
2023-03-16T20:38:14.213Z,2.63
2023-03-16T20:40:42.785Z,2.65
2023-03-16T20:43:19.411Z,2.83
2023-03-16T20:45:46.300Z,2.58
2023-03-16T20:48:17.248Z,2.90
2023-03-16T20:50:44.362Z,2.25
2023-03-16T20:53:11.106Z,2.47
2023-03-16T20:55:38.142Z,2.65
2023-03-16T20:58:22.565Z,2.33
2023-03-16T21:00:50.598Z,2.35
2023-03-16T21:03:29.351Z,2.47
2023-03-16T21:05:59.572Z,2.83
2023-03-16T21:08:27.348Z,1.85
2023-03-16T21:10:56.619Z,2.67
2023-03-16T21:13:31.044Z,2.60
2023-03-16T21:16:00.300Z,2.30
2023-03-16T21:18:27.832Z,2.78
2023-03-16T21:20:56.065Z,2.42
2023-03-16T21:23:23.821Z,2.42
2023-03-16T21:25:56.690Z,3.08
2023-03-16T21:28:25.659Z,2.40
2023-03-16T21:30:55.113Z,2.45
2023-03-16T21:33:32.504Z,2.97
2023-03-16T21:36:00.703Z,3.00
2023-03-16T21:38:29.914Z,1.95
2023-03-16T21:40:56.904Z,2.13
2023-03-16T21:43:24.038Z,2.22
2023-03-16T21:45:51.907Z,2.70
2023-03-16T21:48:29.805Z,1.98
2023-03-16T21:50:57.164Z,2.67
2023-03-16T21:53:27.021Z,2.78
2023-03-16T21:55:55.130Z,2.08
2023-03-16T21:58:23.485Z,2.20
2023-03-16T22:00:52.628Z,2.47
2023-03-16T22:03:33.002Z,2.67
2023-03-16T22:06:05.007Z,2.40
2023-03-16T22:08:34.141Z,2.28
2023-03-16T22:11:01.915Z,2.05
2023-03-16T22:13:28.802Z,2.53
2023-03-16T22:15:58.269Z,2.20
2023-03-16T22:18:36.807Z,2.22
2023-03-16T22:21:23.368Z,2.75
2023-03-16T22:23:50.578Z,2.40
2023-03-16T22:26:20.305Z,2.45
2023-03-16T22:28:48.190Z,2.05
2023-03-16T22:31:18.637Z,2.40
2023-03-16T22:33:47.664Z,2.60
2023-03-16T22:36:18.485Z,2.40
2023-03-16T22:38:46.383Z,2.03
2023-03-16T22:41:15.844Z,2.78
2023-03-16T22:43:44.677Z,2.40
2023-03-16T22:46:29.524Z,2.45
2023-03-16T22:48:57.430Z,2.20
2023-03-16T22:51:31.704Z,2.45
2023-03-16T22:54:04.618Z,2.50
2023-03-16T22:56:32.375Z,2.90
2023-03-16T22:59:02.691Z,2.17
2023-03-16T23:01:33.948Z,2.30
2023-03-16T23:04:01.603Z,2.80
2023-03-16T23:06:31.551Z,2.40
2023-03-16T23:08:58.408Z,2.70
2023-03-16T23:11:30.989Z,2.30
2023-03-16T23:13:58.143Z,2.30
2023-03-16T23:16:29.120Z,2.75
2023-03-16T23:18:56.584Z,2.70
2023-03-16T23:21:24.879Z,2.50
2023-03-16T23:24:03.130Z,2.35
2023-03-16T23:26:31.055Z,2.40
2023-03-16T23:29:01.967Z,2.55
2023-03-16T23:31:29.788Z,3.05
2023-03-16T23:33:56.852Z,2.97
2023-03-16T23:36:25.798Z,3.00
2023-03-16T23:38:53.116Z,2.70
2023-03-16T23:41:23.920Z,2.55
2023-03-16T23:43:51.295Z,2.58
2023-03-16T23:46:20.968Z,2.90
2023-03-16T23:48:49.396Z,2.53
2023-03-16T23:51:30.850Z,2.92
2023-03-16T23:53:58.670Z,2.60
2023-03-16T23:56:27.043Z,3.17
2023-03-16T23:58:54.824Z,3.17
